Time;durP1;ratioP1;P1;durP2;ratioP2;P2;SDS_P1;SDS_P2;PMS_P1;PMS_P2;Temp;Humidity;BMP_temperature;BMP_pressure;BME280_temperature;BME280_humidity;BME280_pressure;Samples;Min_cycle;Max_cycle;Signal;HPM_P1;HPM_P2
2023/06/04 00:01:58;;;;;;;6.63;3.05;;;11.20;99.90;;;;;;5068464;28;20044;-89
2023/06/04 00:04:25;;;;;;;2.90;2.33;;;11.10;99.90;;;;;;5075453;28;20101;-88
2023/06/04 00:06:51;;;;;;;3.22;2.17;;;11.10;99.90;;;;;;5069899;28;20487;-89
2023/06/04 00:09:17;;;;;;;3.95;2.75;;;11.70;99.90;;;;;;5074476;28;20056;-91
2023/06/04 00:11:42;;;;;;;5.47;2.53;;;11.10;99.90;;;;;;5059235;28;20032;-88
2023/06/04 00:14:08;;;;;;;4.97;3.00;;;11.10;99.90;;;;;;5071656;28;20040;-88
2023/06/04 00:16:35;;;;;;;5.80;2.92;;;11.00;99.90;;;;;;5074833;28;20148;-90
2023/06/04 00:19:02;;;;;;;6.78;3.33;;;11.00;99.90;;;;;;5068694;28;20054;-87
2023/06/04 00:21:27;;;;;;;4.35;2.60;;;11.00;99.90;;;;;;5071866;28;20071;-89
2023/06/04 00:23:53;;;;;;;6.30;2.92;;;11.00;99.90;;;;;;5071448;28;20635;-89
2023/06/04 00:26:20;;;;;;;3.72;2.65;;;11.00;99.90;;;;;;5069967;28;20052;-88
2023/06/04 00:28:45;;;;;;;6.35;3.40;;;11.00;99.90;;;;;;5087437;28;20051;-90
2023/06/04 00:31:12;;;;;;;6.60;3.15;;;10.90;99.90;;;;;;5069659;28;20479;-87
2023/06/04 00:33:39;;;;;;;6.30;3.00;;;10.90;99.90;;;;;;5070606;28;20081;-89
2023/06/04 00:36:05;;;;;;;4.07;2.75;;;10.80;99.90;;;;;;5073226;28;20855;-89
2023/06/04 00:38:30;;;;;;;7.25;3.08;;;10.90;99.90;;;;;;5070375;28;20037;-88
2023/06/04 00:40:56;;;;;;;6.40;2.88;;;10.90;99.90;;;;;;5071106;28;20051;-88
2023/06/04 00:43:31;;;;;;;5.63;3.30;;;10.80;99.90;;;;;;5070942;28;20040;-88
2023/06/04 00:45:57;;;;;;;6.03;2.90;;;10.80;99.90;;;;;;5067564;28;20045;-88
2023/06/04 00:48:23;;;;;;;3.55;2.55;;;10.80;99.90;;;;;;5068349;28;20087;-88
2023/06/04 00:50:50;;;;;;;5.95;3.40;;;10.80;99.90;;;;;;5070777;28;20040;-86
2023/06/04 00:53:16;;;;;;;3.95;3.00;;;10.70;99.90;;;;;;5073286;28;20056;-88
2023/06/04 00:55:42;;;;;;;7.20;3.33;;;10.70;99.90;;;;;;5065928;28;20048;-86
2023/06/04 00:58:09;;;;;;;10.05;3.83;;;10.70;99.90;;;;;;5065623;28;20408;-87
2023/06/04 01:00:36;;;;;;;6.22;3.40;;;10.70;99.90;;;;;;5048498;28;20052;-88
2023/06/04 01:03:06;;;;;;;3.53;3.05;;;10.70;99.90;;;;;;5065334;28;20391;-88
2023/06/04 01:05:55;;;;;;;5.72;3.60;;;10.60;99.90;;;;;;5067806;28;20044;-88
2023/06/04 01:08:22;;;;;;;5.93;3.50;;;10.80;99.90;;;;;;5068292;28;20051;-88
2023/06/04 01:10:52;;;;;;;5.43;3.38;;;10.60;99.90;;;;;;5070974;28;20052;-88
2023/06/04 01:13:17;;;;;;;4.75;3.22;;;10.60;99.90;;;;;;5071412;28;20415;-87
2023/06/04 01:15:43;;;;;;;3.65;2.90;;;10.60;99.90;;;;;;5077568;28;20050;-88
2023/06/04 01:18:09;;;;;;;6.80;3.55;;;10.50;99.90;;;;;;5072368;28;20040;-88
2023/06/04 01:20:40;;;;;;;5.65;3.25;;;10.50;99.90;;;;;;5073164;28;20041;-88
2023/06/04 01:23:28;;;;;;;9.30;3.65;;;10.50;99.90;;;;;;5078303;28;20143;-88
2023/06/04 01:25:57;;;;;;;5.43;3.20;;;10.50;99.90;;;;;;5065216;28;20044;-89
2023/06/04 01:28:23;;;;;;;7.65;3.70;;;10.80;99.90;;;;;;5069510;28;20099;-88
2023/06/04 01:30:50;;;;;;;6.88;3.55;;;10.40;99.90;;;;;;5070376;28;20105;-88
2023/06/04 01:33:18;;;;;;;8.73;4.18;;;10.40;99.90;;;;;;5069958;28;20185;-88
2023/06/04 01:35:44;;;;;;;8.55;4.35;;;10.40;99.90;;;;;;5073257;28;20044;-88
2023/06/04 01:38:10;;;;;;;7.32;3.38;;;10.40;99.90;;;;;;5071211;28;20443;-88
2023/06/04 01:40:36;;;;;;;8.20;3.20;;;10.40;99.90;;;;;;5091573;28;20047;-87
2023/06/04 01:43:03;;;;;;;8.13;4.15;;;10.30;99.90;;;;;;5092047;28;20040;-88
2023/06/04 01:45:29;;;;;;;9.02;3.50;;;10.30;99.90;;;;;;5090977;28;20048;-88
2023/06/04 01:47:56;;;;;;;6.82;3.45;;;10.30;99.90;;;;;;5063160;28;20124;-88
2023/06/04 01:50:22;;;;;;;7.63;3.00;;;10.30;99.90;;;;;;5069628;28;20377;-88
2023/06/04 01:52:51;;;;;;;6.40;3.85;;;10.20;99.90;;;;;;5091518;28;20044;-87
2023/06/04 01:55:17;;;;;;;6.63;3.85;;;10.20;99.90;;;;;;5076787;28;20475;-88
2023/06/04 01:57:45;;;;;;;8.07;4.00;;;10.20;99.90;;;;;;5071780;28;20064;-88
2023/06/04 02:00:12;;;;;;;9.30;4.00;;;10.20;99.90;;;;;;5069368;28;20048;-88
2023/06/04 02:02:40;;;;;;;7.55;4.22;;;10.10;99.90;;;;;;5068714;28;20032;-88
2023/06/04 02:05:09;;;;;;;6.05;3.88;;;10.10;99.90;;;;;;5071789;28;20505;-89
2023/06/04 02:07:38;;;;;;;6.88;3.72;;;10.10;99.90;;;;;;5053171;28;20071;-88
2023/06/04 02:10:08;;;;;;;9.00;4.20;;;10.10;99.90;;;;;;5068625;28;20052;-87
2023/06/04 02:12:36;;;;;;;9.00;4.18;;;10.00;99.90;;;;;;5068815;28;20036;-87
2023/06/04 02:15:03;;;;;;;6.97;4.07;;;10.00;99.90;;;;;;5068932;28;20408;-87
2023/06/04 02:17:32;;;;;;;5.07;3.92;;;10.00;99.90;;;;;;5068950;28;20044;-88
2023/06/04 02:19:58;;;;;;;7.32;4.32;;;10.30;99.90;;;;;;5068723;28;20083;-88
2023/06/04 02:22:26;;;;;;;6.78;4.20;;;9.90;99.90;;;;;;5068629;28;20045;-88
2023/06/04 02:24:51;;;;;;;6.82;4.22;;;9.90;99.90;;;;;;5068405;28;20070;-87
2023/06/04 02:27:17;;;;;;;6.85;4.57;;;9.80;99.90;;;;;;5069375;28;20049;-88
2023/06/04 02:29:43;;;;;;;9.15;5.30;;;9.80;99.90;;;;;;5067834;28;20063;-88
2023/06/04 02:32:09;;;;;;;8.77;4.85;;;9.70;99.90;;;;;;5066217;28;20771;-87
2023/06/04 02:34:35;;;;;;;7.68;5.13;;;9.70;99.90;;;;;;5066871;28;20043;-88
2023/06/04 02:37:02;;;;;;;6.70;4.95;;;9.70;99.90;;;;;;5054646;28;20128;-88
2023/06/04 02:39:27;;;;;;;7.18;4.90;;;9.60;99.90;;;;;;5069150;28;20045;-87
2023/06/04 02:41:53;;;;;;;8.48;5.00;;;9.60;99.90;;;;;;5061974;28;20044;-87
2023/06/04 02:44:19;;;;;;;8.43;5.20;;;9.60;99.90;;;;;;5066882;28;20067;-87
2023/06/04 02:46:45;;;;;;;6.35;4.57;;;9.60;99.90;;;;;;5069182;28;20055;-87
2023/06/04 02:49:14;;;;;;;8.80;5.45;;;9.60;99.90;;;;;;5066401;28;20452;-87
2023/06/04 02:51:40;;;;;;;10.52;5.38;;;9.90;99.90;;;;;;5069808;28;20132;-87
2023/06/04 02:54:06;;;;;;;17.27;5.25;;;9.50;99.90;;;;;;5077209;28;20109;-87
2023/06/04 02:56:32;;;;;;;10.35;5.18;;;9.50;99.90;;;;;;5076564;28;20127;-87
2023/06/04 02:58:57;;;;;;;12.60;5.53;;;9.50;99.90;;;;;;5084449;28;20060;-87
2023/06/04 03:01:25;;;;;;;9.82;5.40;;;9.50;99.90;;;;;;5067216;28;20113;-87
2023/06/04 03:03:52;;;;;;;11.15;5.53;;;9.50;99.90;;;;;;5074111;28;20056;-86
2023/06/04 03:06:21;;;;;;;13.00;5.60;;;9.50;99.90;;;;;;5067813;28;20575;-87
2023/06/04 03:08:47;;;;;;;7.88;5.68;;;9.40;99.90;;;;;;5065951;28;20044;-87
2023/06/04 03:11:13;;;;;;;12.88;5.78;;;9.50;99.90;;;;;;5067322;28;20048;-87
2023/06/04 03:13:39;;;;;;;10.50;6.32;;;9.40;99.90;;;;;;5066642;28;20110;-86
2023/06/04 03:16:09;;;;;;;7.00;5.57;;;9.40;99.90;;;;;;5067605;28;20110;-87
2023/06/04 03:18:36;;;;;;;9.82;6.05;;;9.40;99.90;;;;;;5073618;28;20063;-87
2023/06/04 03:21:03;;;;;;;11.27;5.45;;;9.40;99.90;;;;;;5073174;28;20131;-87
2023/06/04 03:23:28;;;;;;;10.10;5.85;;;9.40;99.90;;;;;;5067400;28;20052;-86
2023/06/04 03:25:54;;;;;;;8.88;5.68;;;9.40;99.90;;;;;;5077979;28;20047;-86
2023/06/04 03:28:19;;;;;;;10.30;6.28;;;9.40;99.90;;;;;;5072654;28;20036;-87
2023/06/04 03:30:45;;;;;;;9.57;5.85;;;9.40;99.90;;;;;;5067987;28;20098;-87
2023/06/04 03:33:11;;;;;;;8.70;5.28;;;9.40;99.90;;;;;;5071156;28;20530;-88
2023/06/04 03:35:36;;;;;;;7.05;5.35;;;9.40;99.90;;;;;;5071121;28;20116;-86
2023/06/04 03:38:02;;;;;;;11.05;6.03;;;9.40;99.90;;;;;;5069974;28;20048;-87
2023/06/04 03:40:27;;;;;;;9.35;5.90;;;9.40;99.90;;;;;;5062047;28;20083;-87
2023/06/04 03:42:53;;;;;;;9.55;5.68;;;9.70;99.90;;;;;;5068450;28;20047;-87
2023/06/04 03:45:19;;;;;;;11.50;6.03;;;9.40;99.90;;;;;;5073475;28;20055;-87
2023/06/04 03:47:45;;;;;;;10.27;5.93;;;9.50;99.90;;;;;;5079231;28;20044;-88
2023/06/04 03:50:11;;;;;;;13.85;6.10;;;9.50;99.90;;;;;;5068644;28;20406;-87
2023/06/04 03:52:36;;;;;;;9.57;6.00;;;9.50;99.90;;;;;;5071681;28;20112;-88
2023/06/04 03:55:03;;;;;;;10.25;5.70;;;9.50;99.90;;;;;;5070543;28;20068;-88
2023/06/04 03:57:29;;;;;;;10.88;6.00;;;9.50;99.90;;;;;;5068033;28;20132;-87
2023/06/04 03:59:55;;;;;;;11.95;5.78;;;9.50;99.90;;;;;;5068594;28;20130;-87
2023/06/04 04:02:20;;;;;;;11.93;6.43;;;9.60;99.90;;;;;;5053183;28;20449;-87
2023/06/04 04:04:46;;;;;;;11.50;6.68;;;10.30;99.90;;;;;;5071177;28;20163;-88
2023/06/04 04:07:12;;;;;;;11.98;6.53;;;10.10;99.90;;;;;;5067378;28;20052;-88
2023/06/04 04:09:37;;;;;;;9.85;5.82;;;9.70;99.90;;;;;;5077183;28;20135;-88
2023/06/04 04:12:04;;;;;;;10.75;6.18;;;9.70;99.90;;;;;;5068213;28;20047;-88
2023/06/04 04:14:29;;;;;;;11.52;5.75;;;9.80;99.90;;;;;;5067932;28;20132;-88
2023/06/04 04:16:55;;;;;;;8.35;5.47;;;9.80;99.90;;;;;;5067080;28;20096;-87
2023/06/04 04:19:20;;;;;;;10.38;5.35;;;9.90;99.90;;;;;;5070881;28;20044;-88
2023/06/04 04:21:49;;;;;;;10.27;5.50;;;10.00;99.90;;;;;;5076594;28;20045;-88
2023/06/04 04:24:26;;;;;;;9.43;5.85;;;10.20;99.90;;;;;;5069652;28;20052;-88
2023/06/04 04:26:55;;;;;;;10.85;6.18;;;10.10;99.90;;;;;;5073957;28;20074;-87
2023/06/04 04:29:27;;;;;;;10.73;5.63;;;10.10;99.90;;;;;;5069802;28;20480;-88
2023/06/04 04:31:57;;;;;;;9.98;5.45;;;10.20;99.90;;;;;;5074504;28;20056;-87
2023/06/04 04:34:25;;;;;;;12.40;5.38;;;10.20;99.90;;;;;;5074652;28;20525;-89
2023/06/04 04:36:54;;;;;;;8.32;5.30;;;10.30;99.90;;;;;;5074793;28;20121;-88
2023/06/04 04:39:24;;;;;;;9.10;5.25;;;10.40;99.90;;;;;;5072730;28;20037;-88
2023/06/04 04:41:50;;;;;;;10.50;5.55;;;10.40;99.90;;;;;;5073452;28;20044;-88
2023/06/04 04:44:16;;;;;;;9.35;5.53;;;10.50;99.90;;;;;;5075150;28;20036;-88
2023/06/04 04:46:42;;;;;;;11.65;6.10;;;10.60;99.90;;;;;;5078160;28;20036;-88
2023/06/04 04:49:08;;;;;;;8.55;5.38;;;10.60;99.90;;;;;;5074195;28;20107;-87
2023/06/04 04:51:33;;;;;;;10.15;5.35;;;10.70;99.90;;;;;;5076402;28;20132;-88
2023/06/04 04:54:02;;;;;;;9.23;5.75;;;11.20;99.90;;;;;;5073300;28;20044;-88
2023/06/04 04:56:29;;;;;;;10.07;5.60;;;10.90;99.90;;;;;;5069529;28;20139;-87
2023/06/04 04:58:56;;;;;;;9.88;5.68;;;10.90;99.90;;;;;;5069573;28;20063;-88
2023/06/04 05:01:21;;;;;;;10.80;6.45;;;11.00;99.90;;;;;;5069384;28;20044;-88
2023/06/04 05:03:49;;;;;;;9.57;6.15;;;11.00;99.90;;;;;;5072375;28;20044;-88
2023/06/04 05:06:15;;;;;;;10.00;6.38;;;11.10;99.90;;;;;;5072793;28;20412;-88
2023/06/04 05:08:42;;;;;;;13.07;6.35;;;11.60;99.90;;;;;;5071907;28;20048;-88
2023/06/04 05:11:07;;;;;;;10.75;6.10;;;11.30;99.90;;;;;;5067132;28;20051;-88
2023/06/04 05:13:33;;;;;;;8.18;5.65;;;11.50;99.90;;;;;;5069588;28;20036;-89
2023/06/04 05:15:59;;;;;;;12.52;5.80;;;11.50;99.90;;;;;;5077130;28;20489;-89
2023/06/04 05:18:28;;;;;;;12.77;6.03;;;11.50;99.90;;;;;;5052029;28;20131;-88
2023/06/04 05:20:54;;;;;;;11.50;5.85;;;11.60;99.90;;;;;;5075625;28;20496;-88
2023/06/04 05:23:20;;;;;;;11.18;5.88;;;11.70;99.90;;;;;;5070248;28;20056;-88
2023/06/04 05:25:48;;;;;;;11.60;5.20;;;11.90;99.90;;;;;;5071922;28;20048;-90
2023/06/04 05:28:14;;;;;;;10.45;5.88;;;12.10;99.90;;;;;;5069783;28;20071;-91
2023/06/04 05:30:41;;;;;;;9.55;6.15;;;13.00;99.90;;;;;;5078202;28;20484;-89
2023/06/04 05:33:17;;;;;;;9.02;5.10;;;14.10;99.90;;;;;;5068224;28;20044;-89
2023/06/04 05:35:48;;;;;;;9.88;5.43;;;15.20;99.90;;;;;;5073816;28;20044;-89
2023/06/04 05:38:18;;;;;;;11.68;6.00;;;16.10;99.90;;;;;;5071539;28;20048;-88
2023/06/04 05:40:45;;;;;;;10.05;4.93;;;16.70;99.90;;;;;;5056252;28;20480;-89
2023/06/04 05:43:11;;;;;;;8.93;5.32;;;17.50;99.90;;;;;;5056281;28;20089;-88
2023/06/04 05:45:36;;;;;;;10.18;5.07;;;18.00;99.90;;;;;;5076557;28;20130;-90
2023/06/04 05:48:02;;;;;;;9.80;5.03;;;18.60;99.90;;;;;;5087777;28;20044;-85
2023/06/04 05:50:28;;;;;;;6.93;5.32;;;18.50;99.90;;;;;;5070557;28;20061;-89
2023/06/04 05:52:54;;;;;;;10.32;5.47;;;18.90;99.90;;;;;;5083868;28;20138;-89
2023/06/04 05:55:20;;;;;;;9.07;5.50;;;18.90;99.90;;;;;;5068679;28;20044;-89
2023/06/04 05:57:45;;;;;;;7.88;5.03;;;19.20;99.90;;;;;;5096806;28;20042;-87
2023/06/04 06:00:13;;;;;;;9.45;5.30;;;19.20;99.90;;;;;;5094797;28;20048;-85
2023/06/04 06:02:38;;;;;;;9.82;5.60;;;19.50;99.90;;;;;;5085892;28;20126;-89
2023/06/04 06:05:08;;;;;;;8.10;4.97;;;19.90;99.80;;;;;;5097046;28;20115;-90
2023/06/04 06:07:33;;;;;;;8.30;5.20;;;19.80;98.60;;;;;;5094647;28;20456;-85
2023/06/04 06:10:02;;;;;;;9.00;4.60;;;19.80;98.40;;;;;;5099081;28;20047;-85
2023/06/04 06:12:28;;;;;;;8.18;4.55;;;19.70;97.50;;;;;;5097450;28;20428;-84
2023/06/04 06:14:54;;;;;;;7.60;4.82;;;19.80;97.30;;;;;;5100408;28;20039;-84
2023/06/04 06:17:19;;;;;;;7.03;4.60;;;19.60;96.70;;;;;;5100882;28;20036;-85
2023/06/04 06:19:45;;;;;;;9.68;5.22;;;19.90;96.70;;;;;;5101805;28;20058;-84
2023/06/04 06:22:11;;;;;;;7.47;4.40;;;19.60;96.20;;;;;;5095264;28;20036;-85
2023/06/04 06:24:37;;;;;;;9.15;3.95;;;19.70;96.20;;;;;;5102544;28;20387;-83
2023/06/04 06:27:03;;;;;;;8.18;4.25;;;19.90;95.80;;;;;;5107960;28;20051;-84
2023/06/04 06:29:28;;;;;;;10.18;4.50;;;20.10;95.40;;;;;;5109943;27;20055;-84
2023/06/04 06:31:55;;;;;;;7.13;3.80;;;20.50;94.70;;;;;;5096292;28;20055;-90
2023/06/04 06:34:20;;;;;;;6.90;4.25;;;21.10;94.10;;;;;;5093721;28;20061;-88
2023/06/04 06:36:48;;;;;;;5.93;2.97;;;20.20;93.70;;;;;;5109013;28;20043;-90
2023/06/04 06:39:13;;;;;;;6.22;2.92;;;19.30;94.50;;;;;;5103760;28;20546;-87
2023/06/04 06:41:39;;;;;;;8.00;3.33;;;18.60;96.10;;;;;;5102001;28;20147;-88
2023/06/04 06:44:05;;;;;;;5.43;2.95;;;17.90;97.20;;;;;;5102161;28;20050;-89
2023/06/04 06:46:31;;;;;;;6.53;3.00;;;17.30;98.10;;;;;;5097806;28;20036;-89
2023/06/04 06:48:57;;;;;;;7.05;3.63;;;16.90;99.70;;;;;;5102020;28;20050;-90
2023/06/04 06:51:22;;;;;;;6.65;3.20;;;16.80;99.90;;;;;;5093294;28;20039;-89
2023/06/04 06:53:50;;;;;;;9.85;3.60;;;16.70;99.90;;;;;;5090692;28;20040;-89
2023/06/04 06:56:17;;;;;;;5.60;2.97;;;16.70;99.90;;;;;;5101929;28;20097;-89
2023/06/04 06:58:44;;;;;;;6.88;3.08;;;16.60;99.90;;;;;;5098622;28;20426;-88
2023/06/04 07:01:10;;;;;;;12.30;3.20;;;16.80;99.90;;;;;;5103482;28;20081;-93
2023/06/04 07:03:36;;;;;;;5.15;2.80;;;16.70;99.90;;;;;;5099890;28;20072;-86
2023/06/04 07:06:02;;;;;;;6.43;3.15;;;16.80;99.90;;;;;;5100575;28;20135;-90
2023/06/04 07:08:28;;;;;;;5.88;3.15;;;16.90;99.90;;;;;;5102795;28;20036;-87
2023/06/04 07:10:53;;;;;;;5.55;2.70;;;16.90;99.90;;;;;;5102835;28;20074;-91
2023/06/04 07:13:19;;;;;;;2.63;2.35;;;17.00;99.90;;;;;;5101775;27;20104;-90
2023/06/04 07:15:45;;;;;;;5.47;2.53;;;17.10;99.80;;;;;;5093810;28;20040;-89
2023/06/04 07:18:11;;;;;;;4.15;2.65;;;17.20;99.40;;;;;;5101711;28;20131;-90
2023/06/04 07:20:36;;;;;;;6.47;2.75;;;17.60;99.50;;;;;;5091988;28;20552;-89
2023/06/04 07:23:06;;;;;;;3.70;2.13;;;17.40;99.30;;;;;;5100410;28;20514;-90
2023/06/04 07:25:32;;;;;;;4.55;2.17;;;17.50;99.00;;;;;;5098387;28;20076;-89
2023/06/04 07:27:58;;;;;;;2.90;1.70;;;17.40;97.50;;;;;;5092773;28;20821;-89
2023/06/04 07:30:26;;;;;;;6.60;2.10;;;17.30;96.00;;;;;;5108941;28;20518;-89
2023/06/04 07:32:51;;;;;;;5.40;1.83;;;17.40;95.20;;;;;;5091566;28;20044;-89
2023/06/04 07:35:18;;;;;;;5.35;2.13;;;17.40;94.20;;;;;;5101826;28;20055;-90
2023/06/04 07:37:47;;;;;;;5.13;1.90;;;17.50;93.70;;;;;;5093300;28;20380;-89
2023/06/04 07:40:14;;;;;;;3.58;2.00;;;17.50;92.80;;;;;;5099963;28;20387;-88
2023/06/04 07:42:40;;;;;;;3.65;1.95;;;17.70;92.20;;;;;;5100066;28;20047;-90
2023/06/04 07:45:08;;;;;;;4.45;1.95;;;18.20;92.10;;;;;;5098805;28;20050;-88
2023/06/04 07:47:35;;;;;;;4.90;2.17;;;17.90;91.20;;;;;;5101773;28;20051;-88
2023/06/04 07:50:03;;;;;;;3.95;2.20;;;18.00;90.90;;;;;;5104095;28;20071;-89
2023/06/04 07:52:29;;;;;;;4.57;2.00;;;18.10;90.50;;;;;;5091921;28;20159;-89
2023/06/04 07:54:55;;;;;;;6.57;2.20;;;18.20;90.10;;;;;;5096817;28;20123;-88
2023/06/04 07:57:20;;;;;;;4.88;2.10;;;18.30;90.10;;;;;;5080600;28;20046;-89
2023/06/04 07:59:46;;;;;;;5.28;2.17;;;18.40;90.00;;;;;;5089986;28;20442;-89
2023/06/04 08:02:12;;;;;;;5.03;1.95;;;18.40;89.40;;;;;;5100490;28;20071;-88
2023/06/04 08:04:38;;;;;;;6.22;2.90;;;18.60;89.20;;;;;;5106469;28;20050;-89
2023/06/04 08:07:04;;;;;;;4.53;2.03;;;18.80;88.80;;;;;;5100052;28;20043;-90
2023/06/04 08:09:29;;;;;;;4.22;1.88;;;18.90;87.80;;;;;;5098618;28;20440;-88
2023/06/04 08:11:55;;;;;;;3.08;1.50;;;19.00;86.70;;;;;;5092427;28;20045;-88
2023/06/04 08:14:22;;;;;;;3.17;1.92;;;19.10;83.40;;;;;;5105108;28;20048;-91
2023/06/04 08:16:48;;;;;;;5.82;2.20;;;19.20;82.90;;;;;;5095838;28;20070;-89
2023/06/04 08:19:13;;;;;;;3.28;2.10;;;19.10;82.10;;;;;;5085459;28;20052;-88
2023/06/04 08:21:40;;;;;;;3.22;1.77;;;19.30;82.30;;;;;;5101280;28;20349;-90
2023/06/04 08:24:08;;;;;;;4.80;2.30;;;19.20;81.70;;;;;;5085267;28;20044;-87
2023/06/04 08:26:34;;;;;;;5.55;2.00;;;19.30;81.10;;;;;;5095260;28;20051;-88
2023/06/04 08:29:03;;;;;;;6.55;1.58;;;19.40;80.30;;;;;;5104417;28;20035;-88
2023/06/04 08:31:28;;;;;;;3.15;1.60;;;19.50;79.20;;;;;;5090636;28;20048;-90
2023/06/04 08:33:54;;;;;;;4.18;2.15;;;19.60;78.90;;;;;;5096323;28;20190;-92
2023/06/04 08:36:20;;;;;;;3.92;2.00;;;19.70;78.90;;;;;;5089959;28;20083;-94
2023/06/04 08:38:45;;;;;;;10.57;2.13;;;19.70;78.60;;;;;;5106982;28;20456;-91
2023/06/04 08:41:43;;;;;;;4.82;2.30;;;19.80;78.40;;;;;;5090298;28;20070;-92
2023/06/04 08:44:10;;;;;;;3.53;1.83;;;19.90;76.70;;;;;;5091184;28;20159;-94
2023/06/04 08:46:40;;;;;;;3.85;1.83;;;19.80;77.70;;;;;;5082536;28;20053;-95
2023/06/04 08:49:06;;;;;;;3.85;1.92;;;19.90;77.60;;;;;;5107838;28;20043;-95
2023/06/04 08:51:36;;;;;;;6.07;1.88;;;20.00;77.20;;;;;;5093638;28;20059;-93
2023/06/04 08:54:07;;;;;;;2.85;1.65;;;20.10;76.00;;;;;;5092571;28;20062;-91
2023/06/04 08:56:33;;;;;;;3.00;1.73;;;20.10;75.10;;;;;;5100966;28;20047;-89
2023/06/04 08:59:05;;;;;;;3.72;1.50;;;20.10;74.80;;;;;;5087716;28;20049;-86
2023/06/04 09:01:32;;;;;;;2.65;1.42;;;20.10;75.00;;;;;;5100597;28;20044;-89
2023/06/04 09:04:01;;;;;;;4.28;1.38;;;20.20;74.50;;;;;;5103462;28;20050;-89
2023/06/04 09:06:26;;;;;;;3.75;1.88;;;20.20;73.50;;;;;;5095735;28;20447;-90
2023/06/04 09:08:59;;;;;;;4.05;2.08;;;20.30;72.50;;;;;;5087457;28;20143;-93
2023/06/04 09:11:39;;;;;;;2.50;1.48;;;20.10;72.00;;;;;;5112648;28;20092;-92
2023/06/04 09:14:08;;;;;;;3.50;1.30;;;20.30;71.30;;;;;;5104547;28;20075;-92
2023/06/04 09:16:48;;;;;;;4.13;1.42;;;20.50;71.30;;;;;;5095590;28;20054;-87
2023/06/04 09:19:14;;;;;;;4.95;1.50;;;20.40;68.30;;;;;;5099606;28;20036;-87
2023/06/04 09:21:59;;;;;;;2.47;1.40;;;20.40;67.60;;;;;;5088294;28;20044;-87
2023/06/04 09:24:38;;;;;;;2.90;1.60;;;20.30;65.60;;;;;;5087571;28;20035;-88
2023/06/04 09:27:14;;;;;;;4.15;1.60;;;20.50;66.80;;;;;;5081863;28;20041;-91
2023/06/04 09:29:48;;;;;;;2.42;1.20;;;20.30;65.30;;;;;;5096882;28;20075;-91
2023/06/04 09:32:13;;;;;;;3.30;1.60;;;20.30;66.50;;;;;;5094581;28;21441;-89
2023/06/04 09:34:44;;;;;;;2.67;1.45;;;20.40;66.60;;;;;;5101759;28;20044;-87
2023/06/04 09:37:16;;;;;;;4.78;1.17;;;20.50;65.50;;;;;;5094288;28;20511;-88
2023/06/04 09:39:41;;;;;;;3.10;1.57;;;20.30;65.00;;;;;;5103705;28;20075;-88
2023/06/04 09:42:07;;;;;;;3.95;1.60;;;20.40;65.20;;;;;;5100583;28;20325;-84
2023/06/04 09:44:44;;;;;;;2.97;1.20;;;20.50;65.00;;;;;;5097896;28;20129;-89
2023/06/04 09:47:09;;;;;;;3.35;1.45;;;20.70;64.60;;;;;;5103168;28;20056;-89
2023/06/04 09:49:50;;;;;;;3.35;1.40;;;20.50;64.60;;;;;;5106913;28;20042;-91
2023/06/04 09:52:16;;;;;;;3.63;2.10;;;20.50;63.40;;;;;;5090640;28;20040;-88
2023/06/04 09:54:43;;;;;;;3.58;1.48;;;20.80;64.50;;;;;;5097338;28;20608;-88
2023/06/04 09:57:16;;;;;;;4.45;1.50;;;20.80;64.00;;;;;;5099940;28;20147;-87
2023/06/04 09:59:48;;;;;;;3.05;1.45;;;21.00;63.00;;;;;;5101468;28;20472;-86
2023/06/04 10:02:19;;;;;;;;;;;20.90;62.90;;;;;;5098619;28;20097;-91
2023/06/04 10:04:54;;;;;;;5.35;1.67;;;21.00;64.90;;;;;;5110111;28;20052;-93
2023/06/04 10:07:21;;;;;;;3.53;1.55;;;21.20;63.70;;;;;;5086867;28;20126;-91
2023/06/04 10:09:49;;;;;;;3.38;1.55;;;21.20;62.20;;;;;;5099225;28;20173;-88
2023/06/04 10:12:16;;;;;;;2.63;1.30;;;21.00;61.60;;;;;;5101767;28;20044;-94
2023/06/04 10:14:51;;;;;;;4.10;1.58;;;21.30;61.90;;;;;;5102675;28;20036;-89
2023/06/04 10:17:18;;;;;;;2.60;1.08;;;21.10;61.90;;;;;;5097486;28;20097;-91
2023/06/04 10:19:54;;;;;;;4.20;1.75;;;21.10;62.60;;;;;;5092929;28;20052;-90
2023/06/04 10:22:20;;;;;;;4.45;1.83;;;21.60;62.60;;;;;;5097668;28;20040;-88
2023/06/04 10:24:46;;;;;;;4.28;1.70;;;21.60;62.60;;;;;;5098049;28;20032;-85
2023/06/04 10:27:12;;;;;;;3.17;1.30;;;21.70;62.50;;;;;;5093108;28;21588;-87
2023/06/04 10:29:44;;;;;;;2.53;1.60;;;21.30;62.10;;;;;;5075507;28;20151;-85
2023/06/04 10:32:10;;;;;;;;;;;21.20;61.50;;;;;;5111770;28;20659;-87
2023/06/04 10:34:36;;;;;;;2.67;1.15;;;21.10;59.20;;;;;;5089504;28;19924;-87
2023/06/04 10:37:02;;;;;;;3.88;1.30;;;21.40;61.60;;;;;;5102280;28;20135;-86
2023/06/04 10:39:29;;;;;;;4.63;1.38;;;21.40;60.50;;;;;;5087473;28;20118;-86
2023/06/04 10:41:59;;;;;;;2.03;1.30;;;21.40;59.30;;;;;;5089712;28;20440;-85
2023/06/04 10:44:25;;;;;;;2.83;1.70;;;21.30;58.30;;;;;;5099644;28;20107;-85
2023/06/04 10:46:53;;;;;;;4.18;1.85;;;21.40;58.70;;;;;;5090893;28;20578;-83
2023/06/04 10:49:29;;;;;;;2.88;1.40;;;21.50;57.90;;;;;;5087828;28;20036;-87
2023/06/04 10:51:56;;;;;;;2.08;1.15;;;21.20;56.90;;;;;;5105049;28;20036;-86
2023/06/04 10:54:25;;;;;;;3.80;1.23;;;21.70;57.60;;;;;;5090416;28;20047;-86
2023/06/04 10:56:54;;;;;;;2.55;1.60;;;21.40;56.70;;;;;;5099736;27;20044;-83
2023/06/04 10:59:24;;;;;;;2.10;1.33;;;21.40;56.30;;;;;;5097713;28;20384;-84
2023/06/04 11:01:49;;;;;;;7.20;2.47;;;21.00;55.60;;;;;;5101294;28;20039;-83
2023/06/04 11:04:23;;;;;;;3.58;1.50;;;21.50;55.70;;;;;;5091739;28;20097;-85
2023/06/04 11:07:09;;;;;;;2.38;1.42;;;21.60;55.20;;;;;;5080794;28;20047;-84
2023/06/04 11:09:36;;;;;;;3.35;1.30;;;21.60;54.30;;;;;;5097838;28;20400;-83
2023/06/04 11:12:04;;;;;;;1.90;1.10;;;21.60;55.20;;;;;;5084748;28;20052;-82
2023/06/04 11:14:30;;;;;;;3.75;1.75;;;21.40;54.70;;;;;;5098556;28;20043;-84
2023/06/04 11:16:56;;;;;;;5.57;1.40;;;21.20;55.00;;;;;;5097215;28;20388;-83
2023/06/04 11:19:22;;;;;;;1.65;0.98;;;21.40;55.30;;;;;;5092905;28;20123;-84
2023/06/04 11:21:48;;;;;;;2.17;1.25;;;21.20;55.20;;;;;;5090826;28;20042;-84
2023/06/04 11:24:14;;;;;;;3.35;1.27;;;21.20;54.90;;;;;;5092018;28;20040;-82
2023/06/04 11:26:39;;;;;;;2.00;1.05;;;21.30;55.00;;;;;;5099409;28;20067;-84
2023/06/04 11:29:11;;;;;;;1.20;1.00;;;21.40;54.50;;;;;;5077108;28;20087;-85
2023/06/04 11:31:47;;;;;;;2.40;1.23;;;21.60;54.30;;;;;;5096783;28;20414;-85
2023/06/04 11:34:26;;;;;;;2.28;1.33;;;21.60;53.80;;;;;;5093689;28;20058;-83
2023/06/04 11:36:55;;;;;;;1.65;1.08;;;21.70;53.20;;;;;;5104139;28;20050;-83
2023/06/04 11:39:22;;;;;;;2.05;1.17;;;21.80;53.50;;;;;;5100167;28;20040;-85
2023/06/04 11:41:50;;;;;;;3.80;1.35;;;21.90;53.10;;;;;;5079391;28;20072;-85
2023/06/04 11:44:19;;;;;;;3.47;1.40;;;22.30;52.90;;;;;;5085774;28;20054;-86
2023/06/04 11:46:45;;;;;;;2.30;0.98;;;22.00;52.60;;;;;;5089929;28;20135;-85
2023/06/04 11:49:16;;;;;;;1.52;1.30;;;21.80;52.80;;;;;;5091389;28;20054;-84
2023/06/04 11:51:47;;;;;;;2.60;1.38;;;22.10;52.90;;;;;;5091545;28;20047;-85
2023/06/04 11:54:14;;;;;;;4.07;1.17;;;21.90;52.90;;;;;;5090294;28;20695;-82
2023/06/04 11:56:40;;;;;;;4.10;1.20;;;22.00;52.60;;;;;;5079668;28;20522;-83
2023/06/04 11:59:06;;;;;;;1.52;0.80;;;22.00;52.30;;;;;;5093357;28;20070;-83
2023/06/04 12:01:32;;;;;;;2.60;1.20;;;22.10;52.10;;;;;;5093577;28;20043;-83
2023/06/04 12:03:58;;;;;;;1.45;1.00;;;22.20;51.90;;;;;;5089834;28;20103;-82
2023/06/04 12:06:23;;;;;;;1.92;1.20;;;22.10;51.80;;;;;;5096990;28;20068;-84
2023/06/04 12:08:53;;;;;;;1.92;1.00;;;22.00;51.90;;;;;;5098504;28;20122;-84
2023/06/04 12:11:32;;;;;;;2.42;1.15;;;21.90;52.20;;;;;;5103240;28;20127;-84
2023/06/04 12:14:05;;;;;;;6.07;1.15;;;21.90;50.40;;;;;;5091196;28;20471;-84
2023/06/04 12:16:33;;;;;;;2.05;1.30;;;21.90;52.90;;;;;;5090490;28;20063;-87
2023/06/04 12:19:10;;;;;;;3.22;1.20;;;22.10;52.80;;;;;;5098799;28;20403;-86
2023/06/04 12:21:36;;;;;;;2.97;1.45;;;21.80;53.60;;;;;;5095041;27;20032;-86
2023/06/04 12:24:14;;;;;;;2.38;1.30;;;22.40;53.20;;;;;;5096992;28;20088;-84
2023/06/04 12:26:41;;;;;;;1.92;1.35;;;22.30;51.70;;;;;;5097640;28;20055;-85
2023/06/04 12:29:15;;;;;;;1.50;1.00;;;22.20;52.30;;;;;;5098019;28;20822;-86
2023/06/04 12:31:45;;;;;;;2.55;1.25;;;22.50;51.90;;;;;;5098822;28;20138;-87
2023/06/04 12:34:12;;;;;;;2.28;1.38;;;22.10;52.00;;;;;;5082938;28;20491;-86
2023/06/04 12:36:38;;;;;;;4.32;1.45;;;21.80;52.20;;;;;;5090711;28;20061;-86
2023/06/04 12:39:05;;;;;;;2.13;1.42;;;22.10;53.20;;;;;;5095111;28;20126;-85
2023/06/04 12:41:31;;;;;;;2.90;1.33;;;22.10;52.90;;;;;;5088980;28;20040;-87
2023/06/04 12:44:00;;;;;;;1.63;1.35;;;22.30;52.50;;;;;;5095184;28;20161;-85
2023/06/04 12:46:26;;;;;;;2.33;1.30;;;22.30;52.60;;;;;;5088606;28;20116;-86
2023/06/04 12:49:03;;;;;;;;;;;;;;;;;;;;;
2023/06/04 12:51:29;;;;;;;4.15;1.42;;;22.30;52.50;;;;;;5092601;28;20121;-86